sensor_id;sensor_type;location;lat;lon;timestamp;P1;durP1;ratioP1;P2;durP2;ratioP2
5805;SDS011;2929;50.810;8.342;2023-02-15T00:01:07;54.43;;;12.33;;
5805;SDS011;2929;50.810;8.342;2023-02-15T00:03:35;91.17;;;12.30;;
5805;SDS011;2929;50.810;8.342;2023-02-15T00:06:03;137.10;;;15.30;;
5805;SDS011;2929;50.810;8.342;2023-02-15T00:08:32;81.80;;;13.63;;
5805;SDS011;2929;50.810;8.342;2023-02-15T00:11:05;73.17;;;13.33;;
5805;SDS011;2929;50.810;8.342;2023-02-15T00:13:33;56.67;;;12.10;;
5805;SDS011;2929;50.810;8.342;2023-02-15T00:16:01;36.93;;;12.97;;
5805;SDS011;2929;50.810;8.342;2023-02-15T00:18:29;52.13;;;17.77;;
5805;SDS011;2929;50.810;8.342;2023-02-15T00:20:57;81.43;;;20.80;;
5805;SDS011;2929;50.810;8.342;2023-02-15T00:23:26;35.00;;;13.23;;
5805;SDS011;2929;50.810;8.342;2023-02-15T00:26:03;47.77;;;11.23;;
5805;SDS011;2929;50.810;8.342;2023-02-15T00:28:32;26.23;;;10.00;;
5805;SDS011;2929;50.810;8.342;2023-02-15T00:31:03;29.13;;;11.30;;
5805;SDS011;2929;50.810;8.342;2023-02-15T00:33:31;48.47;;;18.10;;
5805;SDS011;2929;50.810;8.342;2023-02-15T00:35:58;35.40;;;13.40;;
5805;SDS011;2929;50.810;8.342;2023-02-15T00:38:26;50.57;;;16.90;;
5805;SDS011;2929;50.810;8.342;2023-02-15T00:40:54;46.70;;;14.10;;
5805;SDS011;2929;50.810;8.342;2023-02-15T00:43:24;54.97;;;15.60;;
5805;SDS011;2929;50.810;8.342;2023-02-15T00:45:52;35.93;;;12.33;;
5805;SDS011;2929;50.810;8.342;2023-02-15T00:48:19;44.73;;;14.37;;
5805;SDS011;2929;50.810;8.342;2023-02-15T00:50:48;42.27;;;14.17;;
5805;SDS011;2929;50.810;8.342;2023-02-15T00:53:17;57.03;;;16.20;;
5805;SDS011;2929;50.810;8.342;2023-02-15T00:55:45;87.87;;;18.03;;
5805;SDS011;2929;50.810;8.342;2023-02-15T00:58:13;50.07;;;16.10;;
5805;SDS011;2929;50.810;8.342;2023-02-15T01:00:43;40.40;;;16.77;;
5805;SDS011;2929;50.810;8.342;2023-02-15T01:03:12;44.20;;;15.53;;
5805;SDS011;2929;50.810;8.342;2023-02-15T01:05:41;45.00;;;15.57;;
5805;SDS011;2929;50.810;8.342;2023-02-15T01:08:08;34.07;;;14.67;;
5805;SDS011;2929;50.810;8.342;2023-02-15T01:10:37;42.43;;;13.87;;
5805;SDS011;2929;50.810;8.342;2023-02-15T01:13:04;29.73;;;11.60;;
5805;SDS011;2929;50.810;8.342;2023-02-15T01:15:33;27.60;;;11.10;;
5805;SDS011;2929;50.810;8.342;2023-02-15T01:18:02;30.67;;;12.90;;
5805;SDS011;2929;50.810;8.342;2023-02-15T01:20:33;28.63;;;13.00;;
5805;SDS011;2929;50.810;8.342;2023-02-15T01:23:02;34.97;;;10.63;;
5805;SDS011;2929;50.810;8.342;2023-02-15T01:25:29;24.23;;;10.80;;
5805;SDS011;2929;50.810;8.342;2023-02-15T01:27:56;27.13;;;10.27;;
5805;SDS011;2929;50.810;8.342;2023-02-15T01:30:23;35.50;;;11.70;;
5805;SDS011;2929;50.810;8.342;2023-02-15T01:32:50;37.83;;;11.67;;
5805;SDS011;2929;50.810;8.342;2023-02-15T01:35:19;33.77;;;11.43;;
5805;SDS011;2929;50.810;8.342;2023-02-15T01:37:46;54.50;;;12.50;;
5805;SDS011;2929;50.810;8.342;2023-02-15T01:40:14;39.53;;;10.33;;
5805;SDS011;2929;50.810;8.342;2023-02-15T01:42:43;38.80;;;11.30;;
5805;SDS011;2929;50.810;8.342;2023-02-15T01:45:16;41.27;;;10.77;;
5805;SDS011;2929;50.810;8.342;2023-02-15T01:47:47;40.67;;;9.87;;
5805;SDS011;2929;50.810;8.342;2023-02-15T01:50:22;48.33;;;10.97;;
5805;SDS011;2929;50.810;8.342;2023-02-15T01:52:55;51.63;;;10.87;;
5805;SDS011;2929;50.810;8.342;2023-02-15T01:55:25;73.27;;;11.33;;
5805;SDS011;2929;50.810;8.342;2023-02-15T01:57:55;48.13;;;9.87;;
5805;SDS011;2929;50.810;8.342;2023-02-15T02:00:22;69.67;;;12.00;;
5805;SDS011;2929;50.810;8.342;2023-02-15T02:02:50;56.73;;;12.10;;
5805;SDS011;2929;50.810;8.342;2023-02-15T02:05:25;31.63;;;9.73;;
5805;SDS011;2929;50.810;8.342;2023-02-15T02:07:53;39.87;;;11.47;;
5805;SDS011;2929;50.810;8.342;2023-02-15T02:10:23;40.97;;;10.27;;
5805;SDS011;2929;50.810;8.342;2023-02-15T02:12:56;39.67;;;10.30;;
5805;SDS011;2929;50.810;8.342;2023-02-15T02:15:28;131.67;;;13.43;;
5805;SDS011;2929;50.810;8.342;2023-02-15T02:18:03;67.27;;;10.83;;
5805;SDS011;2929;50.810;8.342;2023-02-15T02:23:48;45.47;;;9.97;;
5805;SDS011;2929;50.810;8.342;2023-02-15T02:32:31;63.13;;;11.60;;
5805;SDS011;2929;50.810;8.342;2023-02-15T02:35:18;31.87;;;10.80;;
5805;SDS011;2929;50.810;8.342;2023-02-15T02:37:55;30.87;;;10.57;;
5805;SDS011;2929;50.810;8.342;2023-02-15T02:40:30;31.30;;;12.90;;
5805;SDS011;2929;50.810;8.342;2023-02-15T02:43:10;25.37;;;10.30;;
5805;SDS011;2929;50.810;8.342;2023-02-15T02:45:40;33.23;;;10.03;;
5805;SDS011;2929;50.810;8.342;2023-02-15T02:48:12;23.67;;;10.63;;
5805;SDS011;2929;50.810;8.342;2023-02-15T02:50:44;36.37;;;10.57;;
5805;SDS011;2929;50.810;8.342;2023-02-15T02:53:11;35.47;;;10.80;;
5805;SDS011;2929;50.810;8.342;2023-02-15T02:55:39;37.03;;;10.03;;
5805;SDS011;2929;50.810;8.342;2023-02-15T02:58:10;51.03;;;10.90;;
5805;SDS011;2929;50.810;8.342;2023-02-15T03:00:41;32.60;;;11.43;;
5805;SDS011;2929;50.810;8.342;2023-02-15T03:03:14;34.03;;;10.60;;
5805;SDS011;2929;50.810;8.342;2023-02-15T03:05:49;25.67;;;10.60;;
5805;SDS011;2929;50.810;8.342;2023-02-15T03:08:19;22.90;;;11.30;;
5805;SDS011;2929;50.810;8.342;2023-02-15T03:10:53;28.50;;;9.73;;
5805;SDS011;2929;50.810;8.342;2023-02-15T03:13:23;27.77;;;9.07;;
5805;SDS011;2929;50.810;8.342;2023-02-15T03:15:50;26.27;;;9.90;;
5805;SDS011;2929;50.810;8.342;2023-02-15T03:18:42;21.90;;;9.80;;
5805;SDS011;2929;50.810;8.342;2023-02-15T03:21:21;19.37;;;10.37;;
5805;SDS011;2929;50.810;8.342;2023-02-15T03:23:52;30.83;;;11.10;;
5805;SDS011;2929;50.810;8.342;2023-02-15T03:26:23;24.20;;;8.87;;
5805;SDS011;2929;50.810;8.342;2023-02-15T03:28:54;34.53;;;11.20;;
5805;SDS011;2929;50.810;8.342;2023-02-15T03:31:23;29.30;;;9.60;;
5805;SDS011;2929;50.810;8.342;2023-02-15T03:33:56;26.07;;;9.90;;
5805;SDS011;2929;50.810;8.342;2023-02-15T03:36:28;19.30;;;9.40;;
5805;SDS011;2929;50.810;8.342;2023-02-15T03:39:04;23.40;;;10.70;;
5805;SDS011;2929;50.810;8.342;2023-02-15T03:41:37;22.20;;;9.80;;
5805;SDS011;2929;50.810;8.342;2023-02-15T03:44:09;20.37;;;9.27;;
5805;SDS011;2929;50.810;8.342;2023-02-15T03:46:43;24.17;;;11.40;;
5805;SDS011;2929;50.810;8.342;2023-02-15T03:49:16;34.90;;;11.87;;
5805;SDS011;2929;50.810;8.342;2023-02-15T03:51:48;21.70;;;9.47;;
5805;SDS011;2929;50.810;8.342;2023-02-15T03:54:20;27.23;;;11.07;;
5805;SDS011;2929;50.810;8.342;2023-02-15T03:57:12;27.83;;;10.30;;
5805;SDS011;2929;50.810;8.342;2023-02-15T04:00:00;31.10;;;11.27;;
5805;SDS011;2929;50.810;8.342;2023-02-15T04:02:50;34.63;;;9.80;;
5805;SDS011;2929;50.810;8.342;2023-02-15T04:05:29;47.03;;;11.07;;
5805;SDS011;2929;50.810;8.342;2023-02-15T04:07:57;29.53;;;11.00;;
5805;SDS011;2929;50.810;8.342;2023-02-15T04:10:24;37.90;;;9.80;;
5805;SDS011;2929;50.810;8.342;2023-02-15T04:13:09;29.40;;;9.33;;
5805;SDS011;2929;50.810;8.342;2023-02-15T04:15:36;31.93;;;10.43;;
5805;SDS011;2929;50.810;8.342;2023-02-15T04:18:21;34.53;;;11.73;;
5805;SDS011;2929;50.810;8.342;2023-02-15T04:21:05;40.17;;;11.73;;
5805;SDS011;2929;50.810;8.342;2023-02-15T04:23:51;41.47;;;11.17;;
5805;SDS011;2929;50.810;8.342;2023-02-15T04:26:35;40.77;;;12.00;;
5805;SDS011;2929;50.810;8.342;2023-02-15T04:29:02;37.77;;;11.80;;
5805;SDS011;2929;50.810;8.342;2023-02-15T04:31:29;31.13;;;11.60;;
5805;SDS011;2929;50.810;8.342;2023-02-15T04:33:56;34.50;;;10.60;;
5805;SDS011;2929;50.810;8.342;2023-02-15T04:36:23;55.63;;;12.00;;
5805;SDS011;2929;50.810;8.342;2023-02-15T04:38:51;32.53;;;11.37;;
5805;SDS011;2929;50.810;8.342;2023-02-15T04:41:18;23.87;;;10.40;;
5805;SDS011;2929;50.810;8.342;2023-02-15T04:43:45;30.70;;;11.97;;
5805;SDS011;2929;50.810;8.342;2023-02-15T04:46:12;36.87;;;11.37;;
5805;SDS011;2929;50.810;8.342;2023-02-15T04:48:39;41.00;;;11.97;;
5805;SDS011;2929;50.810;8.342;2023-02-15T04:51:06;34.13;;;11.30;;
5805;SDS011;2929;50.810;8.342;2023-02-15T04:53:34;29.90;;;10.47;;
5805;SDS011;2929;50.810;8.342;2023-02-15T04:56:03;29.00;;;10.33;;
5805;SDS011;2929;50.810;8.342;2023-02-15T04:58:30;38.40;;;13.03;;
5805;SDS011;2929;50.810;8.342;2023-02-15T05:00:57;32.03;;;11.87;;
5805;SDS011;2929;50.810;8.342;2023-02-15T05:03:24;33.60;;;11.70;;
5805;SDS011;2929;50.810;8.342;2023-02-15T05:05:52;35.73;;;11.73;;
5805;SDS011;2929;50.810;8.342;2023-02-15T05:08:19;46.40;;;12.33;;
5805;SDS011;2929;50.810;8.342;2023-02-15T05:10:47;49.73;;;13.13;;
5805;SDS011;2929;50.810;8.342;2023-02-15T05:13:15;35.90;;;12.23;;
5805;SDS011;2929;50.810;8.342;2023-02-15T05:15:46;38.70;;;12.27;;
5805;SDS011;2929;50.810;8.342;2023-02-15T05:18:14;41.97;;;12.33;;
5805;SDS011;2929;50.810;8.342;2023-02-15T05:20:43;37.80;;;12.23;;
5805;SDS011;2929;50.810;8.342;2023-02-15T05:23:10;56.90;;;12.17;;
5805;SDS011;2929;50.810;8.342;2023-02-15T05:25:37;35.10;;;11.37;;
5805;SDS011;2929;50.810;8.342;2023-02-15T05:28:24;39.40;;;12.03;;
5805;SDS011;2929;50.810;8.342;2023-02-15T05:30:58;42.87;;;12.17;;
5805;SDS011;2929;50.810;8.342;2023-02-15T05:33:29;34.20;;;11.03;;
5805;SDS011;2929;50.810;8.342;2023-02-15T05:35:56;33.17;;;10.97;;
5805;SDS011;2929;50.810;8.342;2023-02-15T05:38:23;25.57;;;11.40;;
5805;SDS011;2929;50.810;8.342;2023-02-15T05:40:50;36.70;;;12.83;;
5805;SDS011;2929;50.810;8.342;2023-02-15T05:43:17;37.20;;;13.03;;
5805;SDS011;2929;50.810;8.342;2023-02-15T05:45:46;45.60;;;13.53;;
5805;SDS011;2929;50.810;8.342;2023-02-15T05:48:13;41.20;;;12.33;;
5805;SDS011;2929;50.810;8.342;2023-02-15T05:50:40;29.80;;;11.90;;
5805;SDS011;2929;50.810;8.342;2023-02-15T05:53:07;37.87;;;12.17;;
5805;SDS011;2929;50.810;8.342;2023-02-15T05:55:36;41.13;;;11.87;;
5805;SDS011;2929;50.810;8.342;2023-02-15T05:58:04;26.77;;;10.60;;
5805;SDS011;2929;50.810;8.342;2023-02-15T06:00:32;31.00;;;10.93;;
5805;SDS011;2929;50.810;8.342;2023-02-15T06:03:00;29.50;;;11.80;;
5805;SDS011;2929;50.810;8.342;2023-02-15T06:05:27;32.27;;;12.23;;
5805;SDS011;2929;50.810;8.342;2023-02-15T06:07:54;41.77;;;13.20;;
5805;SDS011;2929;50.810;8.342;2023-02-15T06:10:21;25.13;;;11.30;;
5805;SDS011;2929;50.810;8.342;2023-02-15T06:12:48;31.07;;;11.30;;
5805;SDS011;2929;50.810;8.342;2023-02-15T06:15:15;23.13;;;10.73;;
5805;SDS011;2929;50.810;8.342;2023-02-15T06:17:42;46.80;;;11.70;;
5805;SDS011;2929;50.810;8.342;2023-02-15T06:20:11;30.50;;;11.60;;
5805;SDS011;2929;50.810;8.342;2023-02-15T06:22:39;33.53;;;10.00;;
5805;SDS011;2929;50.810;8.342;2023-02-15T06:25:06;21.93;;;9.90;;
5805;SDS011;2929;50.810;8.342;2023-02-15T06:27:35;38.53;;;11.50;;
5805;SDS011;2929;50.810;8.342;2023-02-15T06:30:02;47.40;;;10.10;;
5805;SDS011;2929;50.810;8.342;2023-02-15T06:32:30;26.63;;;10.83;;
5805;SDS011;2929;50.810;8.342;2023-02-15T06:34:57;24.13;;;10.33;;
5805;SDS011;2929;50.810;8.342;2023-02-15T06:37:26;25.87;;;10.23;;
5805;SDS011;2929;50.810;8.342;2023-02-15T06:39:53;26.67;;;9.57;;
5805;SDS011;2929;50.810;8.342;2023-02-15T06:42:20;23.30;;;11.60;;
5805;SDS011;2929;50.810;8.342;2023-02-15T06:44:48;23.27;;;10.10;;
5805;SDS011;2929;50.810;8.342;2023-02-15T06:47:15;26.00;;;10.73;;
5805;SDS011;2929;50.810;8.342;2023-02-15T06:49:42;50.47;;;10.93;;
5805;SDS011;2929;50.810;8.342;2023-02-15T06:52:09;25.70;;;10.50;;
5805;SDS011;2929;50.810;8.342;2023-02-15T06:54:37;38.00;;;10.67;;
5805;SDS011;2929;50.810;8.342;2023-02-15T06:57:04;28.00;;;10.73;;
5805;SDS011;2929;50.810;8.342;2023-02-15T06:59:31;26.60;;;11.50;;
5805;SDS011;2929;50.810;8.342;2023-02-15T07:01:58;20.07;;;9.47;;
5805;SDS011;2929;50.810;8.342;2023-02-15T07:04:25;24.67;;;10.77;;
5805;SDS011;2929;50.810;8.342;2023-02-15T07:06:53;20.83;;;9.60;;
5805;SDS011;2929;50.810;8.342;2023-02-15T07:09:20;22.90;;;10.00;;
5805;SDS011;2929;50.810;8.342;2023-02-15T07:11:49;22.00;;;9.77;;
5805;SDS011;2929;50.810;8.342;2023-02-15T07:14:33;23.13;;;9.87;;
5805;SDS011;2929;50.810;8.342;2023-02-15T07:17:00;23.57;;;9.27;;
5805;SDS011;2929;50.810;8.342;2023-02-15T07:19:27;36.83;;;15.70;;
5805;SDS011;2929;50.810;8.342;2023-02-15T07:21:54;28.90;;;10.57;;
5805;SDS011;2929;50.810;8.342;2023-02-15T07:24:21;27.43;;;9.53;;
5805;SDS011;2929;50.810;8.342;2023-02-15T07:26:49;18.50;;;9.50;;
5805;SDS011;2929;50.810;8.342;2023-02-15T07:29:16;22.17;;;9.90;;
5805;SDS011;2929;50.810;8.342;2023-02-15T07:31:44;24.40;;;8.87;;
5805;SDS011;2929;50.810;8.342;2023-02-15T07:34:11;26.43;;;10.40;;
5805;SDS011;2929;50.810;8.342;2023-02-15T07:36:38;24.63;;;10.40;;
5805;SDS011;2929;50.810;8.342;2023-02-15T07:39:05;17.60;;;10.00;;
5805;SDS011;2929;50.810;8.342;2023-02-15T07:41:32;26.73;;;11.10;;
5805;SDS011;2929;50.810;8.342;2023-02-15T07:44:00;20.20;;;10.17;;
5805;SDS011;2929;50.810;8.342;2023-02-15T07:46:27;22.73;;;10.50;;
5805;SDS011;2929;50.810;8.342;2023-02-15T07:48:55;19.43;;;9.13;;
5805;SDS011;2929;50.810;8.342;2023-02-15T07:51:22;22.87;;;10.57;;
5805;SDS011;2929;50.810;8.342;2023-02-15T07:53:49;20.70;;;9.70;;
5805;SDS011;2929;50.810;8.342;2023-02-15T07:56:16;24.23;;;9.97;;
5805;SDS011;2929;50.810;8.342;2023-02-15T07:58:43;23.50;;;9.67;;
5805;SDS011;2929;50.810;8.342;2023-02-15T08:01:25;22.00;;;9.57;;
5805;SDS011;2929;50.810;8.342;2023-02-15T08:03:54;21.63;;;10.13;;
5805;SDS011;2929;50.810;8.342;2023-02-15T08:06:21;22.77;;;9.90;;
5805;SDS011;2929;50.810;8.342;2023-02-15T08:08:50;20.30;;;8.93;;
5805;SDS011;2929;50.810;8.342;2023-02-15T08:11:18;21.77;;;9.23;;
5805;SDS011;2929;50.810;8.342;2023-02-15T08:13:54;20.23;;;9.93;;
5805;SDS011;2929;50.810;8.342;2023-02-15T08:16:26;18.53;;;9.53;;
5805;SDS011;2929;50.810;8.342;2023-02-15T08:18:55;17.00;;;7.97;;
5805;SDS011;2929;50.810;8.342;2023-02-15T08:21:24;18.20;;;9.80;;
5805;SDS011;2929;50.810;8.342;2023-02-15T08:23:52;18.40;;;9.27;;
5805;SDS011;2929;50.810;8.342;2023-02-15T08:26:19;18.33;;;8.97;;
5805;SDS011;2929;50.810;8.342;2023-02-15T08:28:46;18.07;;;8.13;;
5805;SDS011;2929;50.810;8.342;2023-02-15T08:31:14;20.13;;;8.90;;
5805;SDS011;2929;50.810;8.342;2023-02-15T08:33:43;23.60;;;10.80;;
5805;SDS011;2929;50.810;8.342;2023-02-15T08:36:12;18.30;;;8.50;;
5805;SDS011;2929;50.810;8.342;2023-02-15T08:38:40;19.63;;;8.80;;
5805;SDS011;2929;50.810;8.342;2023-02-15T08:41:09;21.13;;;9.30;;
5805;SDS011;2929;50.810;8.342;2023-02-15T08:43:38;23.27;;;10.10;;
5805;SDS011;2929;50.810;8.342;2023-02-15T08:46:05;20.37;;;10.00;;
5805;SDS011;2929;50.810;8.342;2023-02-15T08:48:32;19.00;;;8.93;;
5805;SDS011;2929;50.810;8.342;2023-02-15T08:51:05;20.17;;;9.73;;
5805;SDS011;2929;50.810;8.342;2023-02-15T08:53:33;16.80;;;8.40;;
5805;SDS011;2929;50.810;8.342;2023-02-15T08:56:00;18.13;;;9.00;;
5805;SDS011;2929;50.810;8.342;2023-02-15T08:58:28;19.30;;;9.63;;
5805;SDS011;2929;50.810;8.342;2023-02-15T09:00:56;23.63;;;9.87;;
5805;SDS011;2929;50.810;8.342;2023-02-15T09:03:23;19.43;;;9.67;;
5805;SDS011;2929;50.810;8.342;2023-02-15T09:05:50;17.87;;;8.67;;
5805;SDS011;2929;50.810;8.342;2023-02-15T09:08:18;22.50;;;9.57;;
5805;SDS011;2929;50.810;8.342;2023-02-15T09:10:45;17.73;;;8.57;;
5805;SDS011;2929;50.810;8.342;2023-02-15T09:13:12;18.83;;;9.50;;
5805;SDS011;2929;50.810;8.342;2023-02-15T09:15:39;18.17;;;9.60;;
5805;SDS011;2929;50.810;8.342;2023-02-15T09:18:06;14.50;;;8.00;;
5805;SDS011;2929;50.810;8.342;2023-02-15T09:20:34;17.67;;;9.47;;
5805;SDS011;2929;50.810;8.342;2023-02-15T09:23:02;19.97;;;8.80;;
5805;SDS011;2929;50.810;8.342;2023-02-15T09:25:31;17.53;;;8.50;;
5805;SDS011;2929;50.810;8.342;2023-02-15T09:28:00;19.30;;;8.93;;
5805;SDS011;2929;50.810;8.342;2023-02-15T09:30:27;21.93;;;10.67;;
5805;SDS011;2929;50.810;8.342;2023-02-15T09:32:54;16.80;;;8.53;;
5805;SDS011;2929;50.810;8.342;2023-02-15T09:35:20;22.83;;;10.77;;
5805;SDS011;2929;50.810;8.342;2023-02-15T09:37:47;16.00;;;9.57;;
5805;SDS011;2929;50.810;8.342;2023-02-15T09:40:15;20.97;;;9.67;;
5805;SDS011;2929;50.810;8.342;2023-02-15T09:42:48;19.03;;;9.40;;
5805;SDS011;2929;50.810;8.342;2023-02-15T09:45:42;18.77;;;9.07;;
5805;SDS011;2929;50.810;8.342;2023-02-15T09:51:27;19.20;;;8.73;;
5805;SDS011;2929;50.810;8.342;2023-02-15T09:54:21;16.97;;;8.10;;
5805;SDS011;2929;50.810;8.342;2023-02-15T09:57:00;17.10;;;8.83;;
5805;SDS011;2929;50.810;8.342;2023-02-15T09:59:37;18.30;;;10.10;;
5805;SDS011;2929;50.810;8.342;2023-02-15T10:02:19;16.50;;;8.80;;
5805;SDS011;2929;50.810;8.342;2023-02-15T10:04:57;20.60;;;9.77;;
5805;SDS011;2929;50.810;8.342;2023-02-15T10:07:38;18.07;;;9.40;;
5805;SDS011;2929;50.810;8.342;2023-02-15T10:10:18;21.23;;;10.43;;
5805;SDS011;2929;50.810;8.342;2023-02-15T10:12:57;21.57;;;10.37;;
5805;SDS011;2929;50.810;8.342;2023-02-15T10:15:40;21.20;;;10.13;;
5805;SDS011;2929;50.810;8.342;2023-02-15T10:18:38;22.30;;;10.17;;
5805;SDS011;2929;50.810;8.342;2023-02-15T10:21:16;27.07;;;10.00;;
5805;SDS011;2929;50.810;8.342;2023-02-15T10:24:08;21.67;;;10.70;;
5805;SDS011;2929;50.810;8.342;2023-02-15T10:26:58;24.33;;;10.30;;
5805;SDS011;2929;50.810;8.342;2023-02-15T10:29:34;23.53;;;10.07;;
5805;SDS011;2929;50.810;8.342;2023-02-15T10:32:08;23.40;;;11.20;;
5805;SDS011;2929;50.810;8.342;2023-02-15T10:34:43;18.17;;;9.53;;
5805;SDS011;2929;50.810;8.342;2023-02-15T10:40:10;22.10;;;10.20;;
5805;SDS011;2929;50.810;8.342;2023-02-15T10:42:50;22.60;;;10.90;;
5805;SDS011;2929;50.810;8.342;2023-02-15T10:45:30;20.00;;;10.33;;
5805;SDS011;2929;50.810;8.342;2023-02-15T10:48:13;23.57;;;11.77;;
5805;SDS011;2929;50.810;8.342;2023-02-15T10:51:08;24.30;;;11.90;;
5805;SDS011;2929;50.810;8.342;2023-02-15T10:53:46;27.30;;;11.47;;
5805;SDS011;2929;50.810;8.342;2023-02-15T10:56:24;24.57;;;11.57;;
5805;SDS011;2929;50.810;8.342;2023-02-15T10:59:11;25.13;;;12.00;;
5805;SDS011;2929;50.810;8.342;2023-02-15T11:01:51;28.93;;;12.70;;
5805;SDS011;2929;50.810;8.342;2023-02-15T11:07:16;26.43;;;11.80;;
5805;SDS011;2929;50.810;8.342;2023-02-15T11:09:47;28.57;;;13.77;;
5805;SDS011;2929;50.810;8.342;2023-02-15T11:12:17;27.30;;;12.97;;
5805;SDS011;2929;50.810;8.342;2023-02-15T11:14:48;28.23;;;13.40;;
5805;SDS011;2929;50.810;8.342;2023-02-15T11:17:21;25.10;;;12.10;;
5805;SDS011;2929;50.810;8.342;2023-02-15T11:19:56;26.40;;;11.83;;
5805;SDS011;2929;50.810;8.342;2023-02-15T11:22:28;24.13;;;11.97;;
5805;SDS011;2929;50.810;8.342;2023-02-15T11:24:56;27.63;;;12.90;;
5805;SDS011;2929;50.810;8.342;2023-02-15T11:27:26;24.63;;;11.73;;
5805;SDS011;2929;50.810;8.342;2023-02-15T11:29:58;29.00;;;13.40;;
5805;SDS011;2929;50.810;8.342;2023-02-15T11:32:27;27.73;;;13.07;;
5805;SDS011;2929;50.810;8.342;2023-02-15T11:34:59;27.70;;;13.00;;
5805;SDS011;2929;50.810;8.342;2023-02-15T11:37:33;26.17;;;12.50;;
5805;SDS011;2929;50.810;8.342;2023-02-15T11:40:03;28.37;;;13.37;;
5805;SDS011;2929;50.810;8.342;2023-02-15T11:42:43;23.73;;;12.70;;
5805;SDS011;2929;50.810;8.342;2023-02-15T11:45:18;28.33;;;13.47;;
5805;SDS011;2929;50.810;8.342;2023-02-15T11:47:49;30.43;;;14.23;;
5805;SDS011;2929;50.810;8.342;2023-02-15T11:50:18;29.47;;;13.57;;
5805;SDS011;2929;50.810;8.342;2023-02-15T11:52:49;26.30;;;13.93;;
5805;SDS011;2929;50.810;8.342;2023-02-15T11:55:18;26.80;;;12.50;;
5805;SDS011;2929;50.810;8.342;2023-02-15T11:57:50;27.87;;;12.93;;
5805;SDS011;2929;50.810;8.342;2023-02-15T12:00:24;28.23;;;12.70;;
5805;SDS011;2929;50.810;8.342;2023-02-15T12:03:01;29.53;;;14.10;;
5805;SDS011;2929;50.810;8.342;2023-02-15T12:05:35;28.73;;;13.70;;
5805;SDS011;2929;50.810;8.342;2023-02-15T12:08:09;30.10;;;13.17;;
5805;SDS011;2929;50.810;8.342;2023-02-15T12:10:41;30.60;;;13.27;;
5805;SDS011;2929;50.810;8.342;2023-02-15T12:13:14;27.83;;;14.07;;
5805;SDS011;2929;50.810;8.342;2023-02-15T12:15:42;28.20;;;14.00;;
5805;SDS011;2929;50.810;8.342;2023-02-15T12:18:18;27.20;;;13.67;;
5805;SDS011;2929;50.810;8.342;2023-02-15T12:20:50;23.63;;;13.50;;
5805;SDS011;2929;50.810;8.342;2023-02-15T12:23:18;31.50;;;14.10;;
5805;SDS011;2929;50.810;8.342;2023-02-15T12:25:49;28.23;;;13.77;;
5805;SDS011;2929;50.810;8.342;2023-02-15T12:28:23;29.93;;;13.70;;
5805;SDS011;2929;50.810;8.342;2023-02-15T12:30:53;26.67;;;14.10;;
5805;SDS011;2929;50.810;8.342;2023-02-15T12:33:24;34.03;;;14.90;;
5805;SDS011;2929;50.810;8.342;2023-02-15T12:35:58;31.00;;;14.37;;
5805;SDS011;2929;50.810;8.342;2023-02-15T12:38:27;29.57;;;14.77;;
5805;SDS011;2929;50.810;8.342;2023-02-15T12:40:59;29.40;;;14.23;;
5805;SDS011;2929;50.810;8.342;2023-02-15T12:43:27;29.40;;;13.50;;
5805;SDS011;2929;50.810;8.342;2023-02-15T12:46:12;29.10;;;14.60;;
5805;SDS011;2929;50.810;8.342;2023-02-15T12:49:06;35.00;;;15.50;;
5805;SDS011;2929;50.810;8.342;2023-02-15T12:51:48;34.50;;;15.80;;
5805;SDS011;2929;50.810;8.342;2023-02-15T12:54:17;35.43;;;14.97;;
5805;SDS011;2929;50.810;8.342;2023-02-15T12:56:57;28.97;;;15.20;;
5805;SDS011;2929;50.810;8.342;2023-02-15T12:59:24;36.80;;;16.67;;
5805;SDS011;2929;50.810;8.342;2023-02-15T13:01:52;34.23;;;15.40;;
5805;SDS011;2929;50.810;8.342;2023-02-15T13:04:22;36.27;;;15.70;;
5805;SDS011;2929;50.810;8.342;2023-02-15T13:06:54;31.63;;;15.33;;
5805;SDS011;2929;50.810;8.342;2023-02-15T13:09:25;37.57;;;16.20;;
5805;SDS011;2929;50.810;8.342;2023-02-15T13:12:14;38.53;;;16.80;;
5805;SDS011;2929;50.810;8.342;2023-02-15T13:14:44;30.07;;;14.83;;
5805;SDS011;2929;50.810;8.342;2023-02-15T13:17:16;33.07;;;16.23;;
5805;SDS011;2929;50.810;8.342;2023-02-15T13:19:45;33.47;;;15.93;;
5805;SDS011;2929;50.810;8.342;2023-02-15T13:22:17;41.40;;;16.57;;
5805;SDS011;2929;50.810;8.342;2023-02-15T13:24:47;34.20;;;16.50;;
5805;SDS011;2929;50.810;8.342;2023-02-15T13:27:18;31.73;;;15.00;;
5805;SDS011;2929;50.810;8.342;2023-02-15T13:29:49;34.80;;;15.87;;
5805;SDS011;2929;50.810;8.342;2023-02-15T13:32:23;31.20;;;15.50;;
5805;SDS011;2929;50.810;8.342;2023-02-15T13:34:54;34.13;;;16.10;;
5805;SDS011;2929;50.810;8.342;2023-02-15T13:37:30;31.63;;;14.80;;
5805;SDS011;2929;50.810;8.342;2023-02-15T13:40:15;34.87;;;15.67;;
5805;SDS011;2929;50.810;8.342;2023-02-15T13:42:48;33.67;;;16.07;;
5805;SDS011;2929;50.810;8.342;2023-02-15T13:45:24;32.37;;;15.77;;
5805;SDS011;2929;50.810;8.342;2023-02-15T13:48:01;30.33;;;14.80;;
5805;SDS011;2929;50.810;8.342;2023-02-15T13:50:42;30.50;;;15.30;;
5805;SDS011;2929;50.810;8.342;2023-02-15T13:53:40;32.00;;;15.00;;
5805;SDS011;2929;50.810;8.342;2023-02-15T13:56:22;33.37;;;15.57;;
5805;SDS011;2929;50.810;8.342;2023-02-15T14:01:49;34.57;;;16.50;;
5805;SDS011;2929;50.810;8.342;2023-02-15T14:04:25;32.10;;;15.70;;
5805;SDS011;2929;50.810;8.342;2023-02-15T14:07:21;34.10;;;16.17;;
5805;SDS011;2929;50.810;8.342;2023-02-15T14:10:00;33.77;;;16.27;;
5805;SDS011;2929;50.810;8.342;2023-02-15T14:12:41;37.60;;;17.27;;
5805;SDS011;2929;50.810;8.342;2023-02-15T14:15:21;43.10;;;18.17;;
5805;SDS011;2929;50.810;8.342;2023-02-15T14:17:57;35.87;;;17.70;;
5805;SDS011;2929;50.810;8.342;2023-02-15T14:20:39;40.90;;;18.27;;
5805;SDS011;2929;50.810;8.342;2023-02-15T14:23:17;44.83;;;18.37;;
5805;SDS011;2929;50.810;8.342;2023-02-15T14:25:57;37.33;;;16.33;;
5805;SDS011;2929;50.810;8.342;2023-02-15T14:28:27;46.57;;;18.20;;
5805;SDS011;2929;50.810;8.342;2023-02-15T14:30:59;42.33;;;16.87;;
5805;SDS011;2929;50.810;8.342;2023-02-15T14:33:31;39.63;;;16.67;;
5805;SDS011;2929;50.810;8.342;2023-02-15T14:36:00;38.80;;;17.70;;
5805;SDS011;2929;50.810;8.342;2023-02-15T14:38:36;39.17;;;16.87;;
5805;SDS011;2929;50.810;8.342;2023-02-15T14:41:14;39.60;;;17.63;;
5805;SDS011;2929;50.810;8.342;2023-02-15T14:43:46;51.60;;;18.33;;
5805;SDS011;2929;50.810;8.342;2023-02-15T14:46:21;39.37;;;16.83;;
5805;SDS011;2929;50.810;8.342;2023-02-15T14:48:56;42.30;;;17.00;;
5805;SDS011;2929;50.810;8.342;2023-02-15T14:57:23;40.40;;;18.40;;
5805;SDS011;2929;50.810;8.342;2023-02-15T14:59:56;44.60;;;18.27;;
5805;SDS011;2929;50.810;8.342;2023-02-15T15:02:26;38.63;;;17.67;;
5805;SDS011;2929;50.810;8.342;2023-02-15T15:05:00;44.10;;;18.50;;
5805;SDS011;2929;50.810;8.342;2023-02-15T15:07:36;35.17;;;16.83;;
5805;SDS011;2929;50.810;8.342;2023-02-15T15:13:34;38.20;;;17.40;;
5805;SDS011;2929;50.810;8.342;2023-02-15T15:19:09;45.37;;;18.20;;
5805;SDS011;2929;50.810;8.342;2023-02-15T15:24:48;39.90;;;17.97;;
5805;SDS011;2929;50.810;8.342;2023-02-15T15:49:06;49.60;;;21.50;;
5805;SDS011;2929;50.810;8.342;2023-02-15T15:51:40;48.53;;;20.67;;
5805;SDS011;2929;50.810;8.342;2023-02-15T15:54:11;47.40;;;19.70;;
5805;SDS011;2929;50.810;8.342;2023-02-15T15:56:41;48.17;;;19.40;;
5805;SDS011;2929;50.810;8.342;2023-02-15T15:59:14;48.53;;;20.33;;
5805;SDS011;2929;50.810;8.342;2023-02-15T16:01:46;46.00;;;19.23;;
5805;SDS011;2929;50.810;8.342;2023-02-15T16:04:22;49.20;;;21.20;;
5805;SDS011;2929;50.810;8.342;2023-02-15T16:06:51;54.60;;;19.10;;
5805;SDS011;2929;50.810;8.342;2023-02-15T16:09:20;50.40;;;21.70;;
5805;SDS011;2929;50.810;8.342;2023-02-15T16:11:48;42.20;;;19.37;;
5805;SDS011;2929;50.810;8.342;2023-02-15T16:14:21;51.00;;;20.10;;
5805;SDS011;2929;50.810;8.342;2023-02-15T16:16:55;47.00;;;20.13;;